createdAt,value
2023-05-15T00:00:17.189Z,10.80
2023-05-15T00:03:02.548Z,10.80
2023-05-15T00:05:48.336Z,10.70
2023-05-15T00:08:38.492Z,10.70
2023-05-15T00:11:23.707Z,10.60
2023-05-15T00:14:09.722Z,10.60
2023-05-15T00:16:55.709Z,10.60
2023-05-15T00:19:41.132Z,10.60
2023-05-15T00:22:26.362Z,10.60
2023-05-15T00:25:12.324Z,10.60
2023-05-15T00:28:01.222Z,10.70
2023-05-15T00:30:46.681Z,10.70
2023-05-15T00:33:32.362Z,10.70
2023-05-15T00:36:18.689Z,10.80
2023-05-15T00:39:06.419Z,10.70
2023-05-15T00:41:52.318Z,10.60
2023-05-15T00:44:41.485Z,10.60
2023-05-15T00:47:29.367Z,10.50
2023-05-15T00:50:15.914Z,10.50
2023-05-15T00:53:02.097Z,10.50
2023-05-15T00:55:47.505Z,10.50
2023-05-15T00:58:34.570Z,10.40
2023-05-15T01:01:23.203Z,10.40
2023-05-15T01:04:09.501Z,10.40
2023-05-15T01:06:57.436Z,10.40
2023-05-15T01:09:45.914Z,10.40
2023-05-15T01:12:32.692Z,10.40
2023-05-15T01:15:18.486Z,10.30
2023-05-15T01:18:04.093Z,10.30
2023-05-15T01:21:04.429Z,10.20
2023-05-15T01:24:16.474Z,10.20
2023-05-15T01:27:28.412Z,10.20
2023-05-15T01:30:26.202Z,10.20
2023-05-15T01:33:34.293Z,10.10
2023-05-15T01:36:30.469Z,10.00
2023-05-15T01:39:23.129Z,10.00
2023-05-15T01:42:11.062Z,10.00
2023-05-15T01:44:57.690Z,10.00
2023-05-15T01:47:48.307Z,10.00
2023-05-15T01:50:36.062Z,10.00
2023-05-15T01:53:23.484Z,9.90
2023-05-15T01:56:14.964Z,9.90
2023-05-15T01:59:00.799Z,9.90
2023-05-15T02:01:46.903Z,9.90
2023-05-15T02:04:33.982Z,9.90
2023-05-15T02:07:23.065Z,9.90
2023-05-15T02:10:11.925Z,9.90
2023-05-15T02:13:01.196Z,9.80
2023-05-15T02:15:47.586Z,9.80
2023-05-15T02:18:36.465Z,9.80
2023-05-15T02:21:24.405Z,9.80
2023-05-15T02:24:09.606Z,9.80
2023-05-15T02:27:18.265Z,9.90
2023-05-15T02:30:20.282Z,9.90
2023-05-15T02:33:17.719Z,9.90
2023-05-15T02:36:07.416Z,9.90
2023-05-15T02:38:56.646Z,9.90
2023-05-15T02:41:42.505Z,10.00
2023-05-15T02:44:28.867Z,10.00
2023-05-15T02:47:15.008Z,10.00
2023-05-15T02:50:03.670Z,10.00
2023-05-15T02:52:49.791Z,9.90
2023-05-15T02:55:38.159Z,10.00
2023-05-15T02:58:26.521Z,9.90
2023-05-15T03:01:12.403Z,10.00
2023-05-15T03:04:00.971Z,9.90
2023-05-15T03:06:46.849Z,9.90
2023-05-15T03:09:34.397Z,9.90
2023-05-15T03:12:19.689Z,9.90
2023-05-15T03:15:08.754Z,9.90
2023-05-15T03:17:54.288Z,9.80
2023-05-15T03:20:39.522Z,9.90
2023-05-15T03:23:24.896Z,9.80
2023-05-15T03:26:12.216Z,9.80
2023-05-15T03:28:58.197Z,9.80
2023-05-15T03:31:45.926Z,9.80
2023-05-15T03:34:32.291Z,9.80
2023-05-15T03:37:17.574Z,9.90
2023-05-15T03:40:04.880Z,9.90
2023-05-15T03:42:53.359Z,9.90
2023-05-15T03:45:42.029Z,9.90
2023-05-15T03:48:27.168Z,9.90
2023-05-15T03:51:12.747Z,10.00
2023-05-15T03:53:58.504Z,10.00
2023-05-15T03:56:44.021Z,10.00
2023-05-15T03:59:29.610Z,10.00
2023-05-15T04:02:15.079Z,10.00
2023-05-15T04:05:00.583Z,10.00
2023-05-15T04:07:45.946Z,10.00
2023-05-15T04:10:32.705Z,10.00
2023-05-15T04:13:18.080Z,10.10
2023-05-15T04:16:07.267Z,10.20
2023-05-15T04:18:53.026Z,10.30
2023-05-15T04:21:38.418Z,10.50
2023-05-15T04:24:26.104Z,10.40
2023-05-15T04:27:11.596Z,10.50
2023-05-15T04:30:00.299Z,10.60
2023-05-15T04:32:51.811Z,10.70
2023-05-15T04:35:37.878Z,10.70
2023-05-15T04:38:23.269Z,10.80
2023-05-15T04:41:08.791Z,11.00
2023-05-15T04:43:54.444Z,11.00
2023-05-15T04:46:39.817Z,11.00
2023-05-15T04:49:25.621Z,11.00
2023-05-15T04:52:11.260Z,11.00
2023-05-15T04:54:56.677Z,10.90
2023-05-15T04:57:41.849Z,10.90
2023-05-15T05:00:28.900Z,10.90
2023-05-15T05:03:14.377Z,11.00
2023-05-15T05:06:01.405Z,11.10
2023-05-15T05:08:46.826Z,11.20
2023-05-15T05:11:34.499Z,11.30
2023-05-15T05:14:20.010Z,11.30
2023-05-15T05:17:05.323Z,11.40
2023-05-15T05:19:50.936Z,11.40
2023-05-15T05:22:37.881Z,11.50
2023-05-15T05:25:25.747Z,11.60
2023-05-15T05:28:11.323Z,11.70
2023-05-15T05:30:56.970Z,11.70
2023-05-15T05:33:42.418Z,11.80
2023-05-15T05:36:28.062Z,11.90
2023-05-15T05:39:14.014Z,12.00
2023-05-15T05:42:00.070Z,12.10
2023-05-15T05:44:45.803Z,12.10
2023-05-15T05:47:34.766Z,12.20
2023-05-15T05:50:20.686Z,12.30
2023-05-15T05:53:08.597Z,12.30
2023-05-15T05:55:54.487Z,12.40
2023-05-15T05:58:39.806Z,12.40
2023-05-15T06:01:25.160Z,12.40
2023-05-15T06:04:10.460Z,12.50
2023-05-15T06:06:59.201Z,12.60
2023-05-15T06:09:45.971Z,12.70
2023-05-15T06:12:31.572Z,12.90
2023-05-15T06:15:17.182Z,13.00
2023-05-15T06:18:02.859Z,13.10
2023-05-15T06:20:50.814Z,13.30
2023-05-15T06:23:36.394Z,13.40
2023-05-15T06:26:21.922Z,13.60
2023-05-15T06:29:07.630Z,13.80
2023-05-15T06:31:55.707Z,14.20
2023-05-15T06:34:43.850Z,14.60
2023-05-15T06:37:29.194Z,14.90
2023-05-15T06:40:14.560Z,15.20
2023-05-15T06:42:59.832Z,15.50
2023-05-15T06:45:45.703Z,15.80
2023-05-15T06:48:30.957Z,16.10
2023-05-15T06:51:18.832Z,16.20
2023-05-15T06:54:08.958Z,16.50
2023-05-15T06:56:56.513Z,16.70
2023-05-15T06:59:42.741Z,16.90
2023-05-15T07:02:28.261Z,17.20
2023-05-15T07:05:14.751Z,17.60
2023-05-15T07:08:00.631Z,17.90
2023-05-15T07:10:46.281Z,18.20
2023-05-15T07:13:34.943Z,18.30
2023-05-15T07:16:22.666Z,18.50
2023-05-15T07:19:11.226Z,18.80
2023-05-15T07:21:56.709Z,19.00
2023-05-15T07:24:42.811Z,19.40
2023-05-15T07:27:28.151Z,19.50
2023-05-15T07:30:16.938Z,19.60
2023-05-15T07:33:03.000Z,19.70
2023-05-15T07:35:50.777Z,19.90
2023-05-15T07:38:37.086Z,19.90
2023-05-15T07:41:26.848Z,19.90
2023-05-15T07:44:14.178Z,19.80
2023-05-15T07:47:02.633Z,19.90
2023-05-15T07:49:48.101Z,20.00
2023-05-15T07:52:33.750Z,20.00
2023-05-15T07:55:19.036Z,20.00
2023-05-15T07:58:04.570Z,19.90
2023-05-15T08:00:50.308Z,19.80
2023-05-15T08:03:35.954Z,20.20
2023-05-15T08:06:21.291Z,20.60
2023-05-15T08:09:07.052Z,20.60
2023-05-15T08:11:55.482Z,20.40
2023-05-15T08:14:40.976Z,20.50
2023-05-15T08:17:29.682Z,20.70
2023-05-15T08:20:15.591Z,21.20
2023-05-15T08:23:00.980Z,21.30
2023-05-15T08:25:46.610Z,21.40
2023-05-15T08:28:33.297Z,20.90
2023-05-15T08:31:18.612Z,20.80
2023-05-15T08:34:03.945Z,20.80
2023-05-15T08:36:49.389Z,20.60
2023-05-15T08:39:37.455Z,20.50
2023-05-15T08:42:35.243Z,20.20
2023-05-15T08:45:24.134Z,19.80
2023-05-15T08:48:14.169Z,19.60
2023-05-15T08:51:01.531Z,19.40
2023-05-15T08:53:47.305Z,19.40
2023-05-15T08:56:33.372Z,19.50
2023-05-15T08:59:21.897Z,19.30
2023-05-15T09:02:07.492Z,19.30
2023-05-15T09:04:56.062Z,19.40
2023-05-15T09:07:42.642Z,19.40
2023-05-15T09:10:31.737Z,19.40
2023-05-15T09:13:20.417Z,19.40
2023-05-15T09:16:09.375Z,19.30
2023-05-15T09:18:54.783Z,19.40
2023-05-15T09:21:43.067Z,19.40
2023-05-15T09:24:31.616Z,19.50
2023-05-15T09:27:17.162Z,19.50
2023-05-15T09:30:09.841Z,19.60
2023-05-15T09:32:59.933Z,19.60
2023-05-15T09:35:46.147Z,19.50
2023-05-15T09:38:35.983Z,19.90
2023-05-15T09:41:26.451Z,20.10
2023-05-15T09:44:24.744Z,20.30
2023-05-15T09:47:11.649Z,20.50
2023-05-15T09:49:57.275Z,20.60
2023-05-15T09:52:42.747Z,20.30
2023-05-15T09:55:28.450Z,20.60
2023-05-15T09:58:16.164Z,20.60
2023-05-15T10:01:10.539Z,20.60
2023-05-15T10:04:01.669Z,20.30
2023-05-15T10:06:48.762Z,20.40
2023-05-15T10:09:34.538Z,20.40
2023-05-15T10:12:19.652Z,20.40
2023-05-15T10:15:06.200Z,20.10
2023-05-15T10:17:54.380Z,20.00
2023-05-15T10:20:40.034Z,20.10
2023-05-15T10:23:26.140Z,19.90
2023-05-15T10:26:36.997Z,19.80
2023-05-15T10:29:26.777Z,19.50
2023-05-15T10:32:14.086Z,19.30
2023-05-15T10:34:59.781Z,19.10
2023-05-15T10:37:48.656Z,19.00
2023-05-15T10:40:40.379Z,18.90
2023-05-15T10:43:28.277Z,18.90
2023-05-15T10:46:18.275Z,18.90
2023-05-15T10:49:05.525Z,18.60
2023-05-15T10:51:52.963Z,18.50
2023-05-15T10:54:38.791Z,18.70
2023-05-15T10:57:24.038Z,19.00
2023-05-15T11:00:27.026Z,18.80
2023-05-15T11:03:44.925Z,19.40
2023-05-15T11:06:34.933Z,19.30
2023-05-15T11:09:37.678Z,19.70
2023-05-15T11:12:23.753Z,20.30
2023-05-15T11:15:12.588Z,20.90
2023-05-15T11:18:11.211Z,21.20
2023-05-15T11:20:59.575Z,21.00
2023-05-15T11:23:47.557Z,21.90
2023-05-15T11:26:33.919Z,22.40
2023-05-15T11:29:19.433Z,22.40
2023-05-15T11:32:47.496Z,22.10
2023-05-15T11:35:35.074Z,22.50
2023-05-15T11:38:26.579Z,22.70
2023-05-15T11:41:23.937Z,23.10
2023-05-15T11:44:19.178Z,23.60
2023-05-15T11:47:09.983Z,23.20
2023-05-15T11:49:55.518Z,23.60
2023-05-15T11:52:43.749Z,23.50
2023-05-15T11:55:31.201Z,23.40
2023-05-15T11:58:19.102Z,23.50
2023-05-15T12:01:04.565Z,23.60
2023-05-15T12:03:51.483Z,23.10
2023-05-15T12:06:40.709Z,22.50
2023-05-15T12:09:29.098Z,22.60
2023-05-15T12:12:14.651Z,22.70
2023-05-15T12:15:00.563Z,22.30
2023-05-15T12:17:48.749Z,22.50
2023-05-15T12:20:36.315Z,23.40
2023-05-15T12:23:24.207Z,24.60
2023-05-15T12:26:09.632Z,25.60
2023-05-15T12:28:56.778Z,26.10
2023-05-15T12:31:42.212Z,26.60
2023-05-15T12:34:27.841Z,31.30
2023-05-15T12:37:21.258Z,35.00
2023-05-15T12:40:11.965Z,31.90
2023-05-15T12:42:57.878Z,32.50
2023-05-15T12:45:43.198Z,37.50
2023-05-15T12:48:35.288Z,38.20
2023-05-15T12:51:23.267Z,40.90
2023-05-15T12:54:17.898Z,45.50
2023-05-15T12:57:03.392Z,45.20
2023-05-15T12:59:48.570Z,43.10
2023-05-15T13:02:34.458Z,44.60
2023-05-15T13:05:22.571Z,40.50
2023-05-15T13:08:07.924Z,41.20
2023-05-15T13:11:02.821Z,36.40
2023-05-15T13:13:50.203Z,33.90
2023-05-15T13:16:36.923Z,31.70
2023-05-15T13:19:22.277Z,29.90
2023-05-15T13:22:10.509Z,28.50
2023-05-15T13:24:57.239Z,32.70
2023-05-15T13:27:42.780Z,33.50
2023-05-15T13:30:29.453Z,37.50
2023-05-15T13:33:15.020Z,36.40
2023-05-15T13:36:00.252Z,28.00
2023-05-15T13:38:47.619Z,25.50
2023-05-15T13:41:32.907Z,23.90
2023-05-15T13:44:18.557Z,22.40
2023-05-15T13:47:04.500Z,21.20
2023-05-15T13:49:50.174Z,21.00
2023-05-15T13:52:35.829Z,20.00
2023-05-15T13:55:22.919Z,19.20
2023-05-15T13:58:14.806Z,18.70
2023-05-15T14:01:03.458Z,18.40
2023-05-15T14:03:51.381Z,18.50
2023-05-15T14:06:36.825Z,18.80
2023-05-15T14:09:22.413Z,18.40
2023-05-15T14:12:09.684Z,18.00
2023-05-15T14:14:57.947Z,17.30
2023-05-15T14:17:44.001Z,16.80
2023-05-15T14:20:32.308Z,17.20
2023-05-15T14:23:17.980Z,17.50
2023-05-15T14:26:03.723Z,17.40
2023-05-15T14:28:49.256Z,17.30
2023-05-15T14:31:34.980Z,17.40
2023-05-15T14:34:25.649Z,17.20
2023-05-15T14:37:11.274Z,17.20
2023-05-15T14:39:56.493Z,17.30
2023-05-15T14:42:41.906Z,17.60
2023-05-15T14:45:27.668Z,18.20
2023-05-15T14:48:13.340Z,19.20
2023-05-15T14:50:58.695Z,19.80
2023-05-15T14:53:44.631Z,19.90
2023-05-15T14:56:29.937Z,20.80
2023-05-15T14:59:15.573Z,21.10
2023-05-15T15:02:04.786Z,21.10
2023-05-15T15:04:53.077Z,20.90
2023-05-15T15:08:01.586Z,21.50
2023-05-15T15:10:46.763Z,21.80
2023-05-15T15:13:32.516Z,22.00
2023-05-15T15:16:17.944Z,20.90
2023-05-15T15:19:03.589Z,21.80
2023-05-15T15:21:49.383Z,21.80
2023-05-15T15:24:34.567Z,21.30
2023-05-15T15:27:20.237Z,20.50
2023-05-15T15:30:08.061Z,20.80
2023-05-15T15:32:54.718Z,23.00
2023-05-15T15:35:40.967Z,21.90
2023-05-15T15:38:28.431Z,21.80
2023-05-15T15:41:16.862Z,21.80
2023-05-15T15:44:02.411Z,21.20
2023-05-15T15:46:47.803Z,20.80
2023-05-15T15:49:34.093Z,20.50
2023-05-15T15:52:22.522Z,19.90
2023-05-15T15:55:08.725Z,19.70
2023-05-15T15:57:54.063Z,19.40
2023-05-15T16:00:41.835Z,19.30
2023-05-15T16:03:27.245Z,19.20
2023-05-15T16:06:14.897Z,19.10
2023-05-15T16:09:02.752Z,19.00
2023-05-15T16:11:48.052Z,18.80
2023-05-15T16:14:33.665Z,18.80
2023-05-15T16:17:19.205Z,18.50
2023-05-15T16:20:05.444Z,18.30
2023-05-15T16:22:50.856Z,18.20
2023-05-15T16:25:37.235Z,18.20
2023-05-15T16:28:24.910Z,18.10
2023-05-15T16:31:10.782Z,17.90
2023-05-15T16:34:00.308Z,17.90
2023-05-15T16:36:47.090Z,17.70
2023-05-15T16:39:38.577Z,17.70
2023-05-15T16:42:24.140Z,17.50
2023-05-15T16:45:10.736Z,17.50
2023-05-15T16:47:56.870Z,17.70
2023-05-15T16:50:42.646Z,17.70
2023-05-15T16:53:30.439Z,17.70
2023-05-15T16:56:18.738Z,18.00
2023-05-15T16:59:06.376Z,18.00
2023-05-15T17:01:52.830Z,18.00
2023-05-15T17:04:40.883Z,17.80
2023-05-15T17:07:28.447Z,17.60
2023-05-15T17:10:16.355Z,17.60
2023-05-15T17:13:01.787Z,17.70
2023-05-15T17:15:49.729Z,17.70
2023-05-15T17:18:35.253Z,17.70
2023-05-15T17:21:21.507Z,17.60
2023-05-15T17:24:07.144Z,17.60
2023-05-15T17:26:52.580Z,17.40
2023-05-15T17:29:40.902Z,17.30
2023-05-15T17:32:30.895Z,17.20
2023-05-15T17:35:16.574Z,17.20
2023-05-15T17:38:02.561Z,17.30
2023-05-15T17:40:48.444Z,17.30
2023-05-15T17:43:33.962Z,17.40
2023-05-15T17:46:19.263Z,17.40
2023-05-15T17:49:05.006Z,17.40
2023-05-15T17:51:51.087Z,17.30
2023-05-15T17:54:38.851Z,17.20
2023-05-15T17:57:24.629Z,17.00
2023-05-15T18:00:12.858Z,17.00
2023-05-15T18:02:58.693Z,17.00
2023-05-15T18:05:48.831Z,16.90
2023-05-15T18:08:34.708Z,16.90
2023-05-15T18:11:23.113Z,16.80
2023-05-15T18:14:09.271Z,16.70
2023-05-15T18:16:55.656Z,16.60
2023-05-15T18:19:44.741Z,16.60
2023-05-15T18:22:30.232Z,16.60
2023-05-15T18:25:15.944Z,16.50
2023-05-15T18:28:01.630Z,16.40
2023-05-15T18:30:47.480Z,16.30
2023-05-15T18:33:35.686Z,16.30
2023-05-15T18:36:21.088Z,16.20
2023-05-15T18:39:10.048Z,16.20
2023-05-15T18:41:56.012Z,16.10
2023-05-15T18:44:41.666Z,16.10
2023-05-15T18:47:27.789Z,16.20
2023-05-15T18:50:15.128Z,16.10
2023-05-15T18:53:00.836Z,16.10
2023-05-15T18:55:46.062Z,16.10
2023-05-15T18:58:31.643Z,16.10
2023-05-15T19:01:17.351Z,16.10
2023-05-15T19:04:03.787Z,16.20
2023-05-15T19:06:50.412Z,16.20
2023-05-15T19:09:35.956Z,16.20
2023-05-15T19:12:21.418Z,16.20
2023-05-15T19:15:07.855Z,16.20
2023-05-15T19:17:53.244Z,16.20
2023-05-15T19:20:38.744Z,16.20
2023-05-15T19:23:24.619Z,16.20
2023-05-15T19:26:12.781Z,16.10
2023-05-15T19:28:58.255Z,16.00
2023-05-15T19:31:44.030Z,16.00
2023-05-15T19:34:32.461Z,16.00
2023-05-15T19:37:18.009Z,15.90
2023-05-15T19:40:04.234Z,15.80
2023-05-15T19:42:50.097Z,15.70
2023-05-15T19:45:35.667Z,15.70
2023-05-15T19:48:21.024Z,15.60
2023-05-15T19:51:06.363Z,15.50
2023-05-15T19:53:52.291Z,15.40
2023-05-15T19:56:38.268Z,15.30
2023-05-15T19:59:26.008Z,15.10
2023-05-15T20:02:13.362Z,14.90
2023-05-15T20:04:58.824Z,14.80
2023-05-15T20:07:44.571Z,14.80
2023-05-15T20:10:29.824Z,14.60
2023-05-15T20:13:15.107Z,14.60
2023-05-15T20:16:07.042Z,14.60
2023-05-15T20:18:55.593Z,14.60
2023-05-15T20:21:43.246Z,14.60
2023-05-15T20:24:28.849Z,14.50
2023-05-15T20:27:14.207Z,14.60
2023-05-15T20:30:01.408Z,14.50
2023-05-15T20:32:47.183Z,14.50
2023-05-15T20:35:33.089Z,14.50
2023-05-15T20:38:19.350Z,14.40
2023-05-15T20:41:04.556Z,14.50
2023-05-15T20:43:52.783Z,14.40
2023-05-15T20:46:43.545Z,14.40
2023-05-15T20:49:29.501Z,14.50
2023-05-15T20:52:17.497Z,14.50
2023-05-15T20:55:04.325Z,14.60
2023-05-15T20:57:50.671Z,14.70
2023-05-15T21:00:36.420Z,14.70
2023-05-15T21:03:21.956Z,14.70
2023-05-15T21:06:09.724Z,14.70
2023-05-15T21:08:55.774Z,14.60
2023-05-15T21:11:41.530Z,14.60
2023-05-15T21:14:26.899Z,14.50
2023-05-15T21:17:12.226Z,14.40
2023-05-15T21:19:58.597Z,14.50
2023-05-15T21:22:44.207Z,14.40
2023-05-15T21:25:29.590Z,14.50
2023-05-15T21:28:15.539Z,14.50
2023-05-15T21:31:12.815Z,14.40
2023-05-15T21:33:58.652Z,14.50
2023-05-15T21:36:44.143Z,14.40
2023-05-15T21:39:29.606Z,14.50
2023-05-15T21:42:14.967Z,14.50
2023-05-15T21:45:00.394Z,14.50
2023-05-15T21:47:45.651Z,14.50
2023-05-15T21:50:31.345Z,14.40
2023-05-15T21:53:18.855Z,14.50
2023-05-15T21:56:04.572Z,14.40
2023-05-15T21:58:50.631Z,14.50
2023-05-15T22:01:41.000Z,14.40
2023-05-15T22:04:30.255Z,14.40
2023-05-15T22:07:18.475Z,14.40
2023-05-15T22:10:07.539Z,14.50
2023-05-15T22:12:53.231Z,14.50
2023-05-15T22:15:38.806Z,14.50
2023-05-15T22:18:24.159Z,14.50
2023-05-15T22:21:09.835Z,14.50
2023-05-15T22:23:55.247Z,14.50
2023-05-15T22:26:43.820Z,14.60
2023-05-15T22:29:29.528Z,14.60
2023-05-15T22:32:17.853Z,14.60
2023-05-15T22:35:03.694Z,14.60
2023-05-15T22:37:49.288Z,14.70
2023-05-15T22:40:34.599Z,14.70
2023-05-15T22:43:21.514Z,14.70
2023-05-15T22:46:09.124Z,14.70
2023-05-15T22:49:00.548Z,14.60
2023-05-15T22:51:46.988Z,14.60
2023-05-15T22:54:35.080Z,14.60
2023-05-15T22:57:23.117Z,14.50
2023-05-15T23:00:09.937Z,14.50
2023-05-15T23:02:57.478Z,14.40
2023-05-15T23:05:46.368Z,14.40
2023-05-15T23:08:32.290Z,14.40
2023-05-15T23:11:20.513Z,14.30
2023-05-15T23:14:06.738Z,14.30
2023-05-15T23:16:52.563Z,14.20
2023-05-15T23:19:37.760Z,14.30
2023-05-15T23:22:23.876Z,14.20
2023-05-15T23:25:09.838Z,14.10
2023-05-15T23:27:55.572Z,14.10
2023-05-15T23:30:43.271Z,14.00
2023-05-15T23:33:28.932Z,14.00
2023-05-15T23:36:16.351Z,13.90
2023-05-15T23:39:01.849Z,13.80
2023-05-15T23:41:51.987Z,13.70
2023-05-15T23:44:37.663Z,13.70
2023-05-15T23:47:23.102Z,13.60
2023-05-15T23:50:08.989Z,13.60
2023-05-15T23:52:54.327Z,13.70
2023-05-15T23:55:39.725Z,13.60
2023-05-15T23:58:25.341Z,13.60
